Time;durP1;ratioP1;P1;durP2;ratioP2;P2;SDS_P1;SDS_P2;PMS_P1;PMS_P2;Temp;Humidity;BMP_temperature;BMP_pressure;BME280_temperature;BME280_humidity;BME280_pressure;Samples;Min_cycle;Max_cycle;Signal;HPM_P1;HPM_P2
2023/07/27 00:02:04;;;;;;;;;;;;;;;16.02;88.53;101027.78;5066631;27;19921;-45
2023/07/27 00:04:29;;;;;;;;;;;;;;;15.96;87.59;101029.47;5067808;27;20023;-45
2023/07/27 00:06:54;;;;;;;;;;;;;;;15.92;89.33;101019.91;5063964;27;20351;-47
2023/07/27 00:09:19;;;;;;;;;;;;;;;15.87;90.52;101025.06;5068877;28;19963;-49
2023/07/27 00:11:45;;;;;;;;;;;;;;;15.82;90.93;101018.94;5066013;27;19977;-46
2023/07/27 00:14:10;;;;;;;;;;;;;;;15.76;92.00;101013.72;5059109;28;20384;-46
2023/07/27 00:16:35;;;;;;;;;;;;;;;15.74;93.04;101018.88;5063599;28;19948;-49
2023/07/27 00:19:00;;;;;;;;;;;;;;;15.70;94.75;101013.66;5056171;28;19977;-46
2023/07/27 00:21:26;;;;;;;;;;;;;;;15.62;92.73;101016.19;5056975;27;19921;-45
2023/07/27 00:23:51;;;;;;;;;;;;;;;15.55;93.33;101012.63;5059975;28;19929;-45
2023/07/27 00:26:16;;;;;;;;;;;;;;;15.50;95.57;101010.84;5056775;28;19927;-44
2023/07/27 00:28:41;;;;;;;;;;;;;;;15.46;95.27;101003.88;5064370;28;19956;-45
2023/07/27 00:31:07;;;;;;;;;;;;;;;15.45;96.83;101005.59;5046697;28;19971;-44
2023/07/27 00:33:33;;;;;;;;;;;;;;;15.41;95.43;101001.25;5062814;28;20291;-48
2023/07/27 00:35:59;;;;;;;;;;;;;;;15.38;97.29;100998.63;5037528;28;20003;-44
2023/07/27 00:38:24;;;;;;;;;;;;;;;15.36;98.08;101000.34;5060966;28;20293;-47
2023/07/27 00:40:50;;;;;;;;;;;;;;;15.36;97.83;100999.47;5058731;28;20370;-47
2023/07/27 00:43:15;;;;;;;;;;;;;;;15.30;98.13;100992.50;5059954;28;20386;-46
2023/07/27 00:45:40;;;;;;;;;;;;;;;15.25;98.00;100986.41;5062333;28;19920;-48
2023/07/27 00:48:06;;;;;;;;;;;;;;;15.23;99.93;100990.69;5066838;28;19925;-49
2023/07/27 00:50:34;;;;;;;;;;;;;;;15.23;98.92;100982.94;5069341;28;20011;-46
2023/07/27 00:52:59;;;;;;;;;;;;;;;15.21;100.00;100979.44;5060866;28;19913;-48
2023/07/27 00:55:25;;;;;;;;;;;;;;;15.19;100.00;100979.41;5067332;28;19923;-49
2023/07/27 00:57:51;;;;;;;;;;;;;;;15.19;100.00;100974.25;5061171;28;20331;-46
2023/07/27 01:00:16;;;;;;;;;;;;;;;15.17;99.58;100970.78;5062094;27;19941;-45
2023/07/27 01:02:41;;;;;;;;;;;;;;;15.13;100.00;100965.53;5066917;27;19948;-48
2023/07/27 01:05:07;;;;;;;;;;;;;;;15.09;100.00;100963.75;5063278;28;20147;-45
2023/07/27 01:07:32;;;;;;;;;;;;;;;15.06;100.00;100958.56;5064296;27;19969;-47
2023/07/27 01:09:57;;;;;;;;;;;;;;;15.03;100.00;100955.06;5063926;28;20008;-44
2023/07/27 01:12:29;;;;;;;;;;;;;;;15.01;100.00;100951.59;5067652;28;19923;-46
2023/07/27 01:15:03;;;;;;;;;;;;;;;14.98;100.00;100941.19;5067669;28;20397;-46
2023/07/27 01:17:35;;;;;;;;;;;;;;;14.97;100.00;100936.00;5060898;28;19951;-44
2023/07/27 01:20:15;;;;;;;;;;;;;;;14.98;100.00;100938.59;5053498;28;19923;-47
2023/07/27 01:22:49;;;;;;;;;;;;;;;14.95;100.00;100927.34;5058433;28;19920;-43
2023/07/27 01:25:25;;;;;;;;;;;;;;;14.95;100.00;100930.81;5057288;28;19920;-47
2023/07/27 01:27:55;;;;;;;;;;;;;;;14.91;100.00;100922.97;5058475;28;19921;-47
2023/07/27 01:30:24;;;;;;;;;;;;;;;14.86;100.00;100927.25;5056305;28;19916;-49
2023/07/27 01:32:54;;;;;;;;;;;;;;;14.84;100.00;100916.88;5059388;28;19916;-46
2023/07/27 01:35:21;;;;;;;;;;;;;;;14.84;100.00;100914.28;5062395;28;19917;-46
2023/07/27 01:37:47;;;;;;;;;;;;;;;14.82;100.00;100916.00;5060144;28;19951;-45
2023/07/27 01:40:13;;;;;;;;;;;;;;;14.79;100.00;100909.91;5059800;28;19946;-45
2023/07/27 01:42:40;;;;;;;;;;;;;;;14.79;100.00;100909.91;5057193;28;19925;-45
2023/07/27 01:45:06;;;;;;;;;;;;;;;14.78;100.00;100903.00;5060019;28;19937;-45
2023/07/27 01:47:32;;;;;;;;;;;;;;;14.76;100.00;100900.41;5063048;28;20298;-45
2023/07/27 01:49:59;;;;;;;;;;;;;;;14.74;100.00;100899.47;5059459;28;20528;-45
2023/07/27 01:52:25;;;;;;;;;;;;;;;14.71;100.00;100891.69;5063370;28;19963;-47
2023/07/27 01:54:50;;;;;;;;;;;;;;;14.73;100.00;100890.00;5062416;28;19917;-46
2023/07/27 01:57:16;;;;;;;;;;;;;;;14.72;100.00;100888.25;5059200;28;19960;-44
2023/07/27 01:59:42;;;;;;;;;;;;;;;14.69;100.00;100880.47;5056687;27;19925;-44
2023/07/27 02:02:08;;;;;;;;;;;;;;;14.67;100.00;100870.06;5057510;28;19924;-44
2023/07/27 02:04:34;;;;;;;;;;;;;;;14.63;100.00;100868.31;5059913;28;19920;-47
2023/07/27 02:06:59;;;;;;;;;;;;;;;14.62;100.00;100865.69;5059059;28;20358;-48
2023/07/27 02:09:25;;;;;;;;;;;;;;;14.59;100.00;100860.50;5060356;28;19927;-44
2023/07/27 02:11:54;;;;;;;;;;;;;;;14.54;100.00;100857.84;5063110;28;19913;-44
2023/07/27 02:14:27;;;;;;;;;;;;;;;14.53;100.00;100857.84;5063995;28;19913;-44
2023/07/27 02:17:01;;;;;;;;;;;;;;;14.50;100.00;100850.94;5045064;28;19912;-44
2023/07/27 02:19:30;;;;;;;;;;;;;;;14.49;100.00;100849.16;5063620;28;19924;-45
2023/07/27 02:21:56;;;;;;;;;;;;;;;14.47;100.00;100846.56;5054389;28;19916;-45
2023/07/27 02:24:22;;;;;;;;;;;;;;;14.44;100.00;100836.16;5057325;28;20000;-45
2023/07/27 02:26:47;;;;;;;;;;;;;;;14.43;100.00;100826.63;5056787;28;19932;-45
2023/07/27 02:29:13;;;;;;;;;;;;;;;14.41;100.00;100806.78;5051047;28;21893;-45
2023/07/27 02:31:38;;;;;;;;;;;;;;;14.38;100.00;100814.53;5054440;28;20305;-46
2023/07/27 02:34:03;;;;;;;;;;;;;;;14.37;100.00;100818.81;5049471;28;19936;-45
2023/07/27 02:36:28;;;;;;;;;;;;;;;14.37;100.00;100818.81;5054530;28;19960;-56
2023/07/27 02:38:54;;;;;;;;;;;;;;;14.36;100.00;100805.88;5057120;27;19921;-56
2023/07/27 02:41:19;;;;;;;;;;;;;;;14.34;100.00;100805.00;5049665;28;20211;-57
2023/07/27 02:43:44;;;;;;;;;;;;;;;14.30;100.00;100800.63;5055648;28;20300;-57
2023/07/27 02:46:09;;;;;;;;;;;;;;;14.29;100.00;100799.75;5052887;28;20566;-56
2023/07/27 02:48:35;;;;;;;;;;;;;;;14.27;100.00;100785.94;5056254;28;19941;-56
2023/07/27 02:51:00;;;;;;;;;;;;;;;14.28;100.00;100786.81;5054485;27;19952;-57
2023/07/27 02:53:25;;;;;;;;;;;;;;;14.27;100.00;100785.94;5049957;28;19985;-55
2023/07/27 02:55:55;;;;;;;;;;;;;;;14.26;100.00;100778.16;5051512;28;19970;-57
2023/07/27 02:58:20;;;;;;;;;;;;;;;14.24;100.00;100775.56;5051866;28;20294;-56
2023/07/27 03:00:49;;;;;;;;;;;;;;;14.24;100.00;100780.72;5049554;28;19921;-56
2023/07/27 03:03:14;;;;;;;;;;;;;;;14.26;100.00;100784.22;5053872;28;20007;-57
2023/07/27 03:05:39;;;;;;;;;;;;;;;14.23;100.00;100772.09;5054442;28;20012;-57
2023/07/27 03:08:04;;;;;;;;;;;;;;;14.22;100.00;100761.75;5037709;28;20291;-57
2023/07/27 03:10:30;;;;;;;;;;;;;;;14.20;100.00;100755.69;5055011;28;19977;-57
2023/07/27 03:12:55;;;;;;;;;;;;;;;14.19;100.00;100751.34;5053146;28;19968;-56
2023/07/27 03:15:20;;;;;;;;;;;;;;;14.17;100.00;100750.47;5054070;28;19971;-57
2023/07/27 03:17:45;;;;;;;;;;;;;;;14.16;100.00;100741.00;5055981;28;19928;-56
2023/07/27 03:20:11;;;;;;;;;;;;;;;14.15;100.00;100741.84;5034780;28;19983;-55
2023/07/27 03:22:36;;;;;;;;;;;;;;;14.12;100.00;100740.06;5056172;28;19933;-53
2023/07/27 03:25:01;;;;;;;;;;;;;;;14.09;100.00;100736.59;5050280;28;19916;-56
2023/07/27 03:27:26;;;;;;;;;;;;;;;14.06;100.00;100721.03;5058959;28;20065;-55
2023/07/27 03:29:52;;;;;;;;;;;;;;;14.02;100.00;100712.41;5056317;28;19924;-57
2023/07/27 03:32:17;;;;;;;;;;;;;;;14.00;100.00;100702.88;5057447;28;19932;-56
2023/07/27 03:34:44;;;;;;;;;;;;;;;13.95;100.00;100693.38;5057069;28;19928;-56
2023/07/27 03:37:09;;;;;;;;;;;;;;;13.93;100.00;100678.66;5060798;28;19924;-56
2023/07/27 03:39:35;;;;;;;;;;;;;;;13.91;100.00;100672.63;5043485;28;20053;-56
2023/07/27 03:42:00;;;;;;;;;;;;;;;13.90;100.00;100670.91;5060385;28;19923;-55
2023/07/27 03:44:25;;;;;;;;;;;;;;;13.87;100.00;100673.44;5061458;28;19927;-56
2023/07/27 03:46:50;;;;;;;;;;;;;;;13.85;100.00;100675.13;5063020;28;20374;-57
2023/07/27 03:49:16;;;;;;;;;;;;;;;13.81;100.00;100669.06;5058448;28;19932;-56
2023/07/27 03:51:41;;;;;;;;;;;;;;;13.79;100.00;100660.44;5058322;28;20015;-57
2023/07/27 03:54:06;;;;;;;;;;;;;;;13.80;100.00;100658.72;5062031;28;19948;-56
2023/07/27 03:56:31;;;;;;;;;;;;;;;13.80;100.00;100653.53;5036784;28;19925;-56
2023/07/27 03:58:57;;;;;;;;;;;;;;;13.77;100.00;100646.63;5064052;28;19920;-56
2023/07/27 04:01:22;;;;;;;;;;;;;;;13.80;100.00;100648.38;5064969;28;19920;-57
2023/07/27 04:03:47;;;;;;;;;;;;;;;13.81;100.00;100644.94;5065526;28;19932;-57
2023/07/27 04:06:12;;;;;;;;;;;;;;;13.82;100.00;100644.06;5065318;27;19956;-57
2023/07/27 04:08:38;;;;;;;;;;;;;;;13.81;100.00;100642.34;5065935;28;20370;-58
2023/07/27 04:11:03;;;;;;;;;;;;;;;13.83;100.00;100641.53;5067169;28;19971;-57
2023/07/27 04:13:28;;;;;;;;;;;;;;;13.82;100.00;100652.69;5059745;28;19920;-56
2023/07/27 04:15:53;;;;;;;;;;;;;;;13.82;100.00;100637.19;5057109;28;19964;-56
2023/07/27 04:18:18;;;;;;;;;;;;;;;13.84;100.00;100630.34;5035688;28;19964;-56
2023/07/27 04:20:44;;;;;;;;;;;;;;;13.87;100.00;100634.66;5062489;28;19924;-56
2023/07/27 04:23:11;;;;;;;;;;;;;;;13.86;100.00;100623.47;5057094;28;20081;-55
2023/07/27 04:25:36;;;;;;;;;;;;;;;13.88;100.00;100619.16;5056565;28;20394;-55
2023/07/27 04:28:02;;;;;;;;;;;;;;;13.91;100.00;100620.94;5068011;27;20518;-55
2023/07/27 04:30:27;;;;;;;;;;;;;;;13.91;100.00;100603.69;5055012;28;19920;-56
2023/07/27 04:32:52;;;;;;;;;;;;;;;13.91;100.00;100602.84;5064742;28;19916;-55
2023/07/27 04:35:17;;;;;;;;;;;;;;;13.95;100.00;100602.00;5061435;28;19929;-55
2023/07/27 04:37:43;;;;;;;;;;;;;;;13.95;100.00;100602.00;5040121;28;19955;-57
2023/07/27 04:40:08;;;;;;;;;;;;;;;13.94;100.00;100590.78;5059388;28;19924;-53
2023/07/27 04:42:33;;;;;;;;;;;;;;;13.97;100.00;100589.09;5057705;28;19924;-55
2023/07/27 04:44:59;;;;;;;;;;;;;;;13.99;100.00;100584.81;5062621;28;19944;-57
2023/07/27 04:47:24;;;;;;;;;;;;;;;13.98;100.00;100585.66;5058960;28;19920;-55
2023/07/27 04:49:49;;;;;;;;;;;;;;;14.00;100.00;100584.81;5060669;28;19955;-54
2023/07/27 04:52:14;;;;;;;;;;;;;;;13.99;100.00;100574.47;5057023;28;19966;-55
2023/07/27 04:54:40;;;;;;;;;;;;;;;14.01;100.00;100580.50;5060337;28;19921;-55
2023/07/27 04:57:05;;;;;;;;;;;;;;;14.04;100.00;100570.22;5060567;28;20337;-53
2023/07/27 04:59:30;;;;;;;;;;;;;;;14.01;100.00;100571.03;5041199;28;20007;-52
2023/07/27 05:01:56;;;;;;;;;;;;;;;14.04;100.00;100570.22;5055089;28;20072;-55
2023/07/27 05:04:21;;;;;;;;;;;;;;;14.05;100.00;100566.78;5058247;28;19920;-55
2023/07/27 05:06:46;;;;;;;;;;;;;;;14.08;100.00;100569.41;5059959;27;19921;-53
2023/07/27 05:09:11;;;;;;;;;;;;;;;14.07;100.00;100567.63;5060676;28;20258;-53
2023/07/27 05:11:37;;;;;;;;;;;;;;;14.07;100.00;100558.16;5059774;28;20234;-52
2023/07/27 05:14:02;;;;;;;;;;;;;;;14.10;100.00;100554.75;5067014;28;19920;-54
2023/07/27 05:16:27;;;;;;;;;;;;;;;14.12;100.00;100553.03;5047337;27;20396;-50
2023/07/27 05:18:53;;;;;;;;;;;;;;;14.11;100.00;100541.84;5061261;28;19921;-51
2023/07/27 05:21:18;;;;;;;;;;;;;;;14.14;100.00;100543.59;5063603;28;20293;-44
2023/07/27 05:23:43;;;;;;;;;;;;;;;14.13;100.00;100552.19;5060920;28;19920;-44
2023/07/27 05:26:08;;;;;;;;;;;;;;;14.11;100.00;100541.84;5067568;27;19920;-45
2023/07/27 05:28:34;;;;;;;;;;;;;;;14.16;100.00;100528.94;5066326;28;19921;-44
2023/07/27 05:30:59;;;;;;;;;;;;;;;14.17;100.00;100541.03;5061567;27;19999;-46
2023/07/27 05:33:24;;;;;;;;;;;;;;;14.19;100.00;100539.31;5062325;28;19921;-43
2023/07/27 05:35:50;;;;;;;;;;;;;;;14.20;100.00;100539.34;5050028;27;19924;-45
2023/07/27 05:38:16;;;;;;;;;;;;;;;14.21;100.00;100537.63;5063855;28;20274;-45
2023/07/27 05:40:41;;;;;;;;;;;;;;;14.24;100.00;100527.28;5067664;28;20456;-45
2023/07/27 05:43:07;;;;;;;;;;;;;;;14.27;100.00;100518.69;5068361;27;19921;-44
2023/07/27 05:45:32;;;;;;;;;;;;;;;14.28;100.00;100529.03;5065082;28;19920;-44
2023/07/27 05:47:57;;;;;;;;;;;;;;;14.32;100.00;100523.06;5062508;28;19920;-43
2023/07/27 05:50:22;;;;;;;;;;;;;;;14.31;100.00;100513.53;5044201;28;19916;-45
2023/07/27 05:52:48;;;;;;;;;;;;;;;14.35;100.00;100517.03;5064281;27;19968;-45
2023/07/27 05:55:13;;;;;;;;;;;;;;;14.39;100.00;100526.53;5059670;28;19924;-43
2023/07/27 05:57:40;;;;;;;;;;;;;;;14.40;100.00;100516.19;5063459;27;20446;-40
2023/07/27 06:00:06;;;;;;;;;;;;;;;14.43;100.00;100521.38;5058379;28;19934;-44
2023/07/27 06:02:31;;;;;;;;;;;;;;;14.44;100.00;100517.97;5058620;28;20390;-43
2023/07/27 06:04:56;;;;;;;;;;;;;;;14.48;100.00;100511.97;5064968;27;19920;-44
2023/07/27 06:07:22;;;;;;;;;;;;;;;14.53;100.00;100516.31;5061833;28;20371;-43
2023/07/27 06:09:47;;;;;;;;;;;;;;;14.56;100.00;100513.72;5065132;27;19920;-46
2023/07/27 06:12:12;;;;;;;;;;;;;;;14.61;100.00;100512.03;5063849;28;19924;-46
2023/07/27 06:14:41;;;;;;;;;;;;;;;14.63;100.00;100520.69;5063855;28;20341;-42
2023/07/27 06:17:06;;;;;;;;;;;;;;;14.67;100.00;100506.91;5059818;28;19928;-46
2023/07/27 06:19:32;;;;;;;;;;;;;;;14.73;100.00;100504.34;5062574;28;19920;-44
2023/07/27 06:21:57;;;;;;;;;;;;;;;14.72;100.00;100503.50;5062544;28;19970;-47
2023/07/27 06:24:22;;;;;;;;;;;;;;;14.78;100.00;100505.25;5061982;28;20363;-43
2023/07/27 06:26:48;;;;;;;;;;;;;;;14.80;100.00;100497.47;5063999;28;19997;-44
2023/07/27 06:29:13;;;;;;;;;;;;;;;14.85;100.00;100494.06;5044412;27;20006;-44
2023/07/27 06:31:38;;;;;;;;;;;;;;;14.88;100.00;100485.47;5061729;28;19925;-44
2023/07/27 06:34:04;;;;;;;;;;;;;;;14.93;100.00;100483.75;5060975;28;19928;-46
2023/07/27 06:36:29;;;;;;;;;;;;;;;14.96;100.00;100484.63;5059753;28;19975;-44
2023/07/27 06:38:54;;;;;;;;;;;;;;;15.03;100.00;100482.91;5059896;27;19924;-43
2023/07/27 06:41:25;;;;;;;;;;;;;;;15.07;100.00;100486.41;5061720;28;19916;-44
2023/07/27 06:43:50;;;;;;;;;;;;;;;15.08;100.00;100478.63;5061504;27;19977;-43
2023/07/27 06:46:16;;;;;;;;;;;;;;;15.11;100.00;100485.56;5061712;27;20354;-42
2023/07/27 06:48:41;;;;;;;;;;;;;;;15.14;100.00;100477.78;5056257;27;19932;-44
2023/07/27 06:51:06;;;;;;;;;;;;;;;15.17;100.00;100470.91;5057898;28;19961;-43
2023/07/27 06:53:31;;;;;;;;;;;;;;;15.21;100.00;100476.94;5058100;28;19925;-43
2023/07/27 06:55:57;;;;;;;;;;;;;;;15.22;100.00;100481.25;5058412;27;20019;-47
2023/07/27 06:58:22;;;;;;;;;;;;;;;15.23;100.00;100483.00;5063239;28;19921;-42
2023/07/27 07:00:48;;;;;;;;;;;;;;;15.24;100.00;100482.16;5054558;28;19925;-44
2023/07/27 07:03:13;;;;;;;;;;;;;;;15.26;100.00;100483.88;5054279;28;20028;-43
2023/07/27 07:05:38;;;;;;;;;;;;;;;15.35;100.00;100487.31;5064345;28;19924;-45
2023/07/27 07:08:03;;;;;;;;;;;;;;;15.39;100.00;100474.41;5064032;28;19946;-42
2023/07/27 07:10:29;;;;;;;;;;;;;;;15.43;100.00;100481.31;5039150;28;19921;-45
2023/07/27 07:12:54;;;;;;;;;;;;;;;15.44;100.00;100471.81;5059490;28;20115;-45
2023/07/27 07:15:19;;;;;;;;;;;;;;;15.46;100.00;100478.72;5055034;28;19973;-44
2023/07/27 07:17:45;;;;;;;;;;;;;;;15.51;100.00;100487.38;5044139;27;19924;-44
2023/07/27 07:20:10;;;;;;;;;;;;;;;15.56;100.00;100470.09;5062045;28;19925;-44
2023/07/27 07:22:36;;;;;;;;;;;;;;;15.62;100.00;100479.66;5058078;28;22426;-45
2023/07/27 07:25:01;;;;;;;;;;;;;;;15.65;100.00;100492.63;5062721;28;19964;-44
2023/07/27 07:27:26;;;;;;;;;;;;;;;15.68;100.00;100479.66;5067559;27;19922;-42
2023/07/27 07:29:52;;;;;;;;;;;;;;;15.72;100.00;100475.34;5064008;27;19979;-44
2023/07/27 07:32:17;;;;;;;;;;;;;;;15.75;100.00;100476.22;5046512;28;19916;-44
2023/07/27 07:34:42;;;;;;;;;;;;;;;15.79;100.00;100471.91;5063116;27;19928;-45
2023/07/27 07:37:08;;;;;;;;;;;;;;;15.82;100.00;100470.16;5061976;28;20298;-43
2023/07/27 07:39:33;;;;;;;;;;;;;;;15.85;100.00;100471.03;5062894;28;19929;-46
2023/07/27 07:42:00;;;;;;;;;;;;;;;15.88;100.00;100471.03;5062660;27;20425;-42
2023/07/27 07:44:25;;;;;;;;;;;;;;;15.92;100.00;100460.66;5048413;27;19916;-45
2023/07/27 07:46:50;;;;;;;;;;;;;;;15.94;100.00;100461.53;5063498;28;20451;-47
2023/07/27 07:49:15;;;;;;;;;;;;;;;15.96;100.00;100458.94;5059760;27;19916;-44
2023/07/27 07:51:41;;;;;;;;;;;;;;;15.96;100.00;100454.63;5058102;27;19990;-45
2023/07/27 07:54:08;;;;;;;;;;;;;;;16.03;100.00;100458.06;5046307;27;19917;-45
2023/07/27 07:56:34;;;;;;;;;;;;;;;16.06;100.00;100450.28;5058543;27;19926;-43
2023/07/27 07:59:00;;;;;;;;;;;;;;;16.12;100.00;100454.59;5064924;28;20016;-44
2023/07/27 08:01:25;;;;;;;;;;;;;;;16.17;100.00;100451.13;5065927;28;20044;-46
2023/07/27 08:03:51;;;;;;;;;;;;;;;16.23;100.00;100437.28;5067209;28;19912;-44
2023/07/27 08:06:17;;;;;;;;;;;;;;;16.32;100.00;100443.34;5067719;27;19951;-44
2023/07/27 08:08:43;;;;;;;;;;;;;;;16.41;100.00;100445.03;5062755;28;19964;-43
2023/07/27 08:11:08;;;;;;;;;;;;;;;16.56;100.00;100442.41;5059778;27;19924;-45
2023/07/27 08:13:34;;;;;;;;;;;;;;;16.63;100.00;100448.44;5059194;28;19920;-46
2023/07/27 08:15:59;;;;;;;;;;;;;;;16.67;100.00;100449.28;5056006;28;19924;-47
2023/07/27 08:18:25;;;;;;;;;;;;;;;16.66;100.00;100445.81;5059379;28;19924;-46
2023/07/27 08:20:57;;;;;;;;;;;;;;;16.64;100.00;100442.38;5059761;28;19976;-46
2023/07/27 08:23:22;;;;;;;;;;;;;;;16.67;100.00;100449.28;5059332;28;19924;-46
2023/07/27 08:25:48;;;;;;;;;;;;;;;16.68;100.00;100443.22;5064682;28;19956;-46
2023/07/27 08:28:13;;;;;;;;;;;;;;;16.67;100.00;100438.91;5055072;28;19925;-47
2023/07/27 08:30:41;;;;;;;;;;;;;;;16.68;100.00;100444.06;5059334;27;20413;-44
2023/07/27 08:33:06;;;;;;;;;;;;;;;16.72;100.00;100440.63;5059805;28;20127;-44
2023/07/27 08:35:31;;;;;;;;;;;;;;;16.78;100.00;100443.22;5063852;27;19940;-44
2023/07/27 08:37:57;;;;;;;;;;;;;;;16.78;100.00;100439.75;5060062;28;19995;-44
2023/07/27 08:40:22;;;;;;;;;;;;;;;16.83;100.00;100432.81;5067050;28;19921;-44
2023/07/27 08:42:49;;;;;;;;;;;;;;;16.83;100.00;100441.47;5066775;28;19924;-47
2023/07/27 08:45:14;;;;;;;;;;;;;;;16.79;100.00;100438.88;5067222;28;19939;-44
2023/07/27 08:47:41;;;;;;;;;;;;;;;16.82;100.00;100428.50;5065166;28;20378;-44
2023/07/27 08:50:06;;;;;;;;;;;;;;;16.86;100.00;100431.03;5063075;27;19934;-44
2023/07/27 08:52:32;;;;;;;;;;;;;;;16.88;100.00;100433.66;5066547;27;20007;-43
2023/07/27 08:54:57;;;;;;;;;;;;;;;17.00;100.00;100424.94;5065493;28;19920;-47
2023/07/27 08:57:22;;;;;;;;;;;;;;;17.13;100.00;100430.06;5066008;28;20393;-45
2023/07/27 08:59:47;;;;;;;;;;;;;;;17.24;100.00;100431.75;5063378;28;19943;-45
2023/07/27 09:02:13;;;;;;;;;;;;;;;17.29;100.00;100433.44;5057888;28;19924;-45
2023/07/27 09:04:38;;;;;;;;;;;;;;;17.31;100.00;100430.84;5052828;27;19920;-44
2023/07/27 09:07:06;;;;;;;;;;;;;;;17.34;100.00;100431.66;5038446;28;19921;-50
2023/07/27 09:09:32;;;;;;;;;;;;;;;17.29;100.00;100435.16;5060570;27;19921;-51
2023/07/27 09:11:57;;;;;;;;;;;;;;;17.32;100.00;100441.22;5057026;28;20329;-48
2023/07/27 09:14:23;;;;;;;;;;;;;;;17.35;100.00;100435.13;5062625;28;19980;-54
2023/07/27 09:16:48;;;;;;;;;;;;;;;17.35;100.00;100442.91;5066459;28;20016;-53
2023/07/27 09:19:15;;;;;;;;;;;;;;;17.43;100.00;100441.16;5063794;28;19929;-50
2023/07/27 09:21:44;;;;;;;;;;;;;;;17.53;100.00;100439.31;5061874;28;20000;-47
2023/07/27 09:24:13;;;;;;;;;;;;;;;17.53;100.00;100436.72;5056802;27;19925;-51
2023/07/27 09:26:45;;;;;;;;;;;;;;;17.59;100.00;100436.69;5061136;28;19955;-50
2023/07/27 09:29:11;;;;;;;;;;;;;;;17.62;100.00;100431.47;5060469;28;19924;-51
2023/07/27 09:31:44;;;;;;;;;;;;;;;17.62;100.00;100427.13;5057910;28;19927;-49
2023/07/27 09:34:09;;;;;;;;;;;;;;;17.62;100.00;100431.47;5057948;28;19932;-46
2023/07/27 09:36:34;;;;;;;;;;;;;;;17.64;100.00;100434.91;5044162;28;19916;-48
2023/07/27 09:39:00;;;;;;;;;;;;;;;17.65;100.00;100434.94;5059989;27;19962;-49
2023/07/27 09:41:25;;;;;;;;;;;;;;;17.69;100.00;100433.16;5062211;28;19917;-48
2023/07/27 09:43:50;;;;;;;;;;;;;;;17.72;100.00;100429.72;5055157;27;19941;-47
2023/07/27 09:46:20;;;;;;;;;;;;;;;17.73;100.00;100432.28;5060161;28;19962;-48
2023/07/27 09:48:46;;;;;;;;;;;;;;;17.66;100.00;100423.66;5062444;28;19921;-48
2023/07/27 09:51:12;;;;;;;;;;;;;;;17.58;100.00;100429.75;5061777;27;19936;-50
2023/07/27 09:53:40;;;;;;;;;;;;;;;17.57;100.00;100438.44;5065096;27;19956;-56
2023/07/27 09:56:06;;;;;;;;;;;;;;;17.57;100.00;100439.31;5058447;28;19917;-48
2023/07/27 09:58:32;;;;;;;;;;;;;;;17.56;100.00;100440.19;5063783;28;20011;-49
2023/07/27 10:00:57;;;;;;;;;;;;;;;17.56;100.00;100436.72;5061392;28;20683;-52
2023/07/27 10:03:23;;;;;;;;;;;;;;;17.61;100.00;100428.00;5061909;28;19923;-48
2023/07/27 10:05:48;;;;;;;;;;;;;;;17.61;100.00;100438.41;5063936;28;19928;-46
2023/07/27 10:08:15;;;;;;;;;;;;;;;17.65;100.00;100441.84;5064303;27;19920;-48
2023/07/27 10:10:42;;;;;;;;;;;;;;;17.70;100.00;100434.88;5064090;27;19976;-50
2023/07/27 10:13:13;;;;;;;;;;;;;;;17.74;100.00;100436.63;5063726;28;19973;-49
2023/07/27 10:15:42;;;;;;;;;;;;;;;17.81;100.00;100434.81;5062749;28;20414;-49
2023/07/27 10:18:08;;;;;;;;;;;;;;;17.89;100.00;100433.00;5055305;27;19916;-50
2023/07/27 10:20:34;;;;;;;;;;;;;;;17.98;100.00;100430.34;5061467;28;20401;-48
2023/07/27 10:23:19;;;;;;;;;;;;;;;18.03;100.00;100431.16;5063605;28;20362;-51
2023/07/27 10:25:57;;;;;;;;;;;;;;;18.11;100.00;100431.09;5060466;28;19917;-48
2023/07/27 10:28:35;;;;;;;;;;;;;;;18.14;100.00;100426.72;5055616;27;20300;-51
2023/07/27 10:31:16;;;;;;;;;;;;;;;18.20;100.00;100431.88;5057849;28;19924;-49
2023/07/27 10:33:48;;;;;;;;;;;;;;;18.16;100.00;100432.75;5060095;28;19912;-50
2023/07/27 10:36:14;;;;;;;;;;;;;;;18.17;100.00;100431.88;5055604;28;20331;-50
2023/07/27 10:38:40;;;;;;;;;;;;;;;18.13;100.00;100435.38;5062427;28;20023;-49
2023/07/27 10:41:12;;;;;;;;;;;;;;;18.15;100.00;100433.66;5060684;28;19928;-49
2023/07/27 10:43:37;;;;;;;;;;;;;;;18.15;100.00;100430.19;5060806;27;19912;-52
2023/07/27 10:46:20;;;;;;;;;;;;;;;18.18;100.00;100432.75;5061885;28;19923;-47
2023/07/27 10:48:56;;;;;;;;;;;;;;;18.18;100.00;100444.00;5065541;28;20307;-47
2023/07/27 10:51:25;;;;;;;;;;;;;;;18.28;100.00;100434.38;5063146;27;20750;-50
2023/07/27 10:53:50;;;;;;;;;;;;;;;18.26;100.00;100427.44;5065814;27;19939;-49
2023/07/27 10:56:16;;;;;;;;;;;;;;;18.24;100.00;100430.06;5065031;28;20293;-52
2023/07/27 10:58:43;;;;;;;;;;;;;;;18.27;100.00;100432.66;5062325;28;19924;-51
2023/07/27 11:01:09;;;;;;;;;;;;;;;18.28;100.00;100431.78;5062792;28;20426;-51
2023/07/27 11:03:34;;;;;;;;;;;;;;;18.24;100.00;100427.47;5060348;28;19921;-52
2023/07/27 11:06:03;;;;;;;;;;;;;;;18.18;100.00;100433.59;5064573;28;19954;-50
2023/07/27 11:08:28;;;;;;;;;;;;;;;18.13;100.00;100426.72;5064619;28;19925;-52
2023/07/27 11:10:54;;;;;;;;;;;;;;;18.11;100.00;100429.34;5065786;27;20019;-52
2023/07/27 11:13:22;;;;;;;;;;;;;;;18.11;100.00;100423.28;5065948;28;19925;-51
2023/07/27 11:15:47;;;;;;;;;;;;;;;18.13;100.00;100429.31;5063601;28;20381;-51
2023/07/27 11:18:20;;;;;;;;;;;;;;;18.15;100.00;100423.25;5066511;28;19932;-48
2023/07/27 11:20:45;;;;;;;;;;;;;;;18.20;100.00;100420.56;5064114;28;19916;-48
2023/07/27 11:23:11;;;;;;;;;;;;;;;18.33;100.00;100421.31;5064195;28;19988;-49
2023/07/27 11:25:37;;;;;;;;;;;;;;;18.36;100.00;100418.69;5064243;27;19928;-49
2023/07/27 11:28:04;;;;;;;;;;;;;;;18.38;100.00;100425.59;5042570;28;19932;-52
2023/07/27 11:30:29;;;;;;;;;;;;;;;18.35;100.00;100415.22;5060719;28;20481;-49
2023/07/27 11:33:03;;;;;;;;;;;;;;;18.28;100.00;100416.16;5063242;27;19958;-51
2023/07/27 11:35:29;;;;;;;;;;;;;;;18.22;100.00;100419.69;5062916;28;19917;-53
2023/07/27 11:37:55;;;;;;;;;;;;;;;18.23;100.00;100424.00;5060929;28;19917;-47
2023/07/27 11:40:20;;;;;;;;;;;;;;;18.19;100.00;100417.09;5043829;28;20389;-49
2023/07/27 11:42:46;;;;;;;;;;;;;;;18.22;100.00;100418.81;5063383;28;19916;-49
2023/07/27 11:45:12;;;;;;;;;;;;;;;18.16;100.00;100417.16;5063073;28;19917;-50
2023/07/27 11:47:40;;;;;;;;;;;;;;;18.18;100.00;100422.34;5045859;28;19931;-51
2023/07/27 11:50:06;;;;;;;;;;;;;;;18.27;100.00;100417.03;5066651;27;19980;-51
2023/07/27 11:52:33;;;;;;;;;;;;;;;18.32;100.00;100419.56;5066946;28;19916;-51
2023/07/27 11:54:59;;;;;;;;;;;;;;;18.29;100.00;100420.47;5062366;27;19923;-48
2023/07/27 11:57:25;;;;;;;;;;;;;;;18.29;100.00;100417.03;5061967;28;19923;-50
2023/07/27 12:00:10;;;;;;;;;;;;;;;18.32;100.00;100416.97;5057089;27;19924;-49
2023/07/27 12:02:37;;;;;;;;;;;;;;;18.41;100.00;100416.88;5063304;28;19916;-49
2023/07/27 12:05:02;;;;;;;;;;;;;;;18.40;100.00;100416.03;5064455;28;19923;-51
2023/07/27 12:07:31;;;;;;;;;;;;;;;18.38;100.00;100420.41;5065922;28;20390;-51
2023/07/27 12:09:56;;;;;;;;;;;;;;;18.41;100.00;100417.75;5066026;28;19969;-47
2023/07/27 12:12:21;;;;;;;;;;;;;;;18.46;100.00;100418.56;5047531;28;19925;-49
2023/07/27 12:14:46;;;;;;;;;;;;;;;18.51;100.00;100425.47;5067309;28;19916;-48
2023/07/27 12:17:12;;;;;;;;;;;;;;;18.56;100.00;100421.91;5064416;28;20486;-51
2023/07/27 12:19:37;;;;;;;;;;;;;;;18.66;100.00;100420.06;5065871;27;19924;-50
2023/07/27 12:22:03;;;;;;;;;;;;;;;18.80;100.00;100419.91;5064237;28;19920;-48
2023/07/27 12:24:28;;;;;;;;;;;;;;;18.84;100.00;100417.25;5068263;27;20003;-49